Time;durP1;ratioP1;P1;durP2;ratioP2;P2;SDS_P1;SDS_P2;PMS_P1;PMS_P2;Temp;Humidity;BMP_temperature;BMP_pressure;BME280_temperature;BME280_humidity;BME280_pressure;Samples;Min_cycle;Max_cycle;Signal;HPM_P1;HPM_P2
2022/08/10 00:02:37;;;;;;;4.40;4.10;;;;;;;21.41;46.81;156870.13;5010532;28;20496;-77
2022/08/10 00:05:04;;;;;;;4.40;4.10;;;;;;;21.41;47.03;156868.81;4999860;28;20464;-78
2022/08/10 00:07:32;;;;;;;4.47;4.07;;;;;;;21.35;47.03;156854.44;4989248;28;20449;-78
2022/08/10 00:09:59;;;;;;;4.47;4.10;;;;;;;21.37;46.90;156859.66;4972710;28;20449;-78
2022/08/10 00:12:26;;;;;;;4.30;4.00;;;;;;;21.31;46.88;156844.03;4989208;28;20449;-78
2022/08/10 00:14:53;;;;;;;4.70;4.40;;;;;;;21.26;47.40;156830.94;4983891;28;20481;-78
2022/08/10 00:17:19;;;;;;;4.63;4.33;;;;;;;21.21;47.69;156817.91;5001945;28;20444;-78
2022/08/10 00:19:46;;;;;;;6.83;4.00;;;;;;;21.23;47.48;156824.41;5004787;28;20536;-77
2022/08/10 00:22:13;;;;;;;4.00;3.70;;;;;;;21.22;47.70;156821.84;5001066;28;20538;-78
2022/08/10 00:24:41;;;;;;;4.33;3.93;;;;;;;21.14;48.12;156799.63;5021727;28;20535;-77
2022/08/10 00:27:08;;;;;;;4.10;3.80;;;;;;;21.13;47.97;156797.00;5014054;28;20544;-77
2022/08/10 00:29:34;;;;;;;4.23;3.93;;;;;;;21.01;48.22;156766.97;4995734;28;20440;-77
2022/08/10 00:32:01;;;;;;;4.27;3.97;;;;;;;21.04;48.22;156773.50;4994013;28;20460;-78
2022/08/10 00:34:29;;;;;;;4.23;3.83;;;;;;;21.02;48.61;156768.28;5017254;28;20472;-77
2022/08/10 00:36:56;;;;;;;4.20;3.90;;;;;;;21.02;48.61;156768.28;5013512;28;20463;-78
2022/08/10 00:39:22;;;;;;;4.70;4.30;;;;;;;21.01;48.56;156765.66;4979592;28;20562;-78
2022/08/10 00:41:50;;;;;;;4.20;3.90;;;;;;;20.97;48.76;156755.25;5003745;28;20938;-78
2022/08/10 00:44:17;;;;;;;4.23;3.93;;;;;;;20.94;49.14;156747.41;5015636;28;20887;-77
2022/08/10 00:46:44;;;;;;;4.63;4.23;;;;;;;20.94;48.98;156747.41;5015872;28;20455;-78
2022/08/10 00:49:11;;;;;;;4.40;4.10;;;;;;;20.95;49.25;156750.00;4999575;28;20528;-78
2022/08/10 00:51:37;;;;;;;4.27;3.97;;;;;;;20.88;49.41;156731.75;4994556;28;20456;-77
2022/08/10 00:54:05;;;;;;;4.30;4.00;;;;;;;20.91;49.26;156740.88;5016166;28;20471;-77
2022/08/10 00:56:32;;;;;;;5.50;3.83;;;;;;;20.89;49.47;156734.38;4996214;28;20512;-77
2022/08/10 00:59:00;;;;;;;4.37;4.07;;;;;;;20.79;50.00;156708.22;4992925;28;20548;-78
2022/08/10 01:01:27;;;;;;;4.40;4.10;;;;;;;20.76;50.01;156700.44;5017063;28;20538;-78
2022/08/10 01:03:54;;;;;;;5.13;4.73;;;;;;;20.78;49.90;156705.66;5014525;28;20693;-78
2022/08/10 01:06:28;;;;;;;4.23;3.93;;;;;;;20.69;50.41;156682.16;5007173;28;20441;-78
2022/08/10 01:08:59;;;;;;;4.63;4.20;;;;;;;20.68;50.33;156679.56;4993777;28;20418;-78
2022/08/10 01:11:30;;;;;;;4.53;4.23;;;;;;;20.67;50.41;156678.25;4991810;28;20452;-78
2022/08/10 01:14:02;;;;;;;4.50;4.10;;;;;;;20.64;50.50;156670.41;4989335;28;20438;-78
2022/08/10 01:16:34;;;;;;;4.67;4.27;;;;;;;20.58;50.61;156656.06;4976803;28;20478;-78
2022/08/10 01:19:07;;;;;;;4.10;3.70;;;;;;;20.57;50.70;156653.44;4999694;28;20449;-78
2022/08/10 01:21:52;;;;;;;5.37;4.90;;;;;;;20.54;50.90;156645.59;4999014;28;20475;-78
2022/08/10 01:25:11;;;;;;;5.30;4.40;;;;;;;20.49;51.35;156632.56;5003043;28;20871;-77
2022/08/10 01:27:46;;;;;;;4.30;4.00;;;;;;;20.53;51.18;156643.03;5013603;28;20468;-78
2022/08/10 01:30:15;;;;;;;4.70;4.37;;;;;;;20.48;51.23;156629.97;5006073;28;20529;-78
2022/08/10 01:32:48;;;;;;;4.20;3.90;;;;;;;20.47;51.50;156626.03;4992468;28;20457;-78
2022/08/10 01:35:18;;;;;;;5.03;4.63;;;;;;;20.41;51.94;156611.69;5020938;28;20471;-77
2022/08/10 01:37:51;;;;;;;4.30;4.00;;;;;;;20.46;51.71;156623.47;5015454;28;20542;-78
2022/08/10 01:40:23;;;;;;;4.60;4.30;;;;;;;20.42;51.61;156614.31;5019455;28;20443;-77
2022/08/10 01:42:51;;;;;;;4.90;4.50;;;;;;;20.44;51.77;156619.53;4995567;28;20543;-77
2022/08/10 01:45:21;;;;;;;4.33;4.00;;;;;;;20.37;51.97;156601.28;5017028;28;20539;-78
2022/08/10 01:50:37;;;;;;;4.80;4.40;;;;;;;20.32;52.15;156588.25;4993251;28;20410;-78
2022/08/10 01:53:07;;;;;;;5.10;4.53;;;;;;;20.21;52.47;156559.50;4981175;28;20459;-78
2022/08/10 01:55:35;;;;;;;5.40;5.00;;;;;;;20.22;52.54;156562.13;5014500;28;20885;-78
2022/08/10 01:58:04;;;;;;;4.40;4.10;;;;;;;20.21;52.54;156559.50;4995785;28;20481;-78
2022/08/10 02:00:33;;;;;;;4.80;4.33;;;;;;;20.20;52.71;156555.59;4975328;28;20819;-78
2022/08/10 02:03:00;;;;;;;4.93;4.03;;;;;;;20.15;52.87;156543.81;4974280;28;20473;-78
2022/08/10 02:05:29;;;;;;;4.40;4.00;;;;;;;20.20;52.78;156556.84;5027741;28;20865;-77
2022/08/10 02:07:56;;;;;;;4.07;3.77;;;;;;;20.19;52.88;156554.28;5013981;28;20459;-78
2022/08/10 02:10:24;;;;;;;4.40;4.00;;;;;;;20.20;52.87;156555.59;5014642;28;20482;-78
2022/08/10 02:12:55;;;;;;;4.40;4.00;;;;;;;20.20;52.86;156556.84;5003701;28;20453;-78
2022/08/10 02:15:23;;;;;;;4.83;4.43;;;;;;;20.17;52.94;156549.06;4995084;28;20468;-77
2022/08/10 02:17:53;;;;;;;4.70;4.23;;;;;;;20.12;53.09;156536.00;4994668;28;21030;-78
2022/08/10 02:20:22;;;;;;;4.73;4.37;;;;;;;20.10;53.18;156530.78;4979515;28;20439;-78
2022/08/10 02:22:51;;;;;;;7.27;4.67;;;;;;;20.11;53.33;156533.41;4999071;28;20798;-77
2022/08/10 02:25:19;;;;;;;4.90;4.40;;;;;;;20.06;53.42;156520.38;4997008;28;20460;-77
2022/08/10 02:27:47;;;;;;;4.73;4.33;;;;;;;20.03;53.37;156512.53;5012326;28;20445;-78
2022/08/10 02:30:14;;;;;;;4.20;3.90;;;;;;;20.06;53.33;156520.38;4994198;28;20451;-78
2022/08/10 02:32:41;;;;;;;5.90;4.00;;;;;;;19.96;53.62;156495.56;5023739;28;20471;-78
2022/08/10 02:35:11;;;;;;;4.23;3.93;;;;;;;20.01;53.68;156507.34;4998615;28;20975;-77
2022/08/10 02:37:39;;;;;;;4.40;4.10;;;;;;;20.03;53.45;156512.53;4991527;28;20445;-77
2022/08/10 02:40:07;;;;;;;4.90;4.50;;;;;;;20.02;53.43;156509.91;4974304;28;20448;-77
2022/08/10 02:42:39;;;;;;;4.60;4.27;;;;;;;19.97;53.54;156498.19;4990810;28;20982;-77
2022/08/10 02:45:15;;;;;;;4.43;4.13;;;;;;;19.89;53.82;156477.34;5014488;28;20428;-78
2022/08/10 02:47:45;;;;;;;5.37;4.80;;;;;;;19.88;53.70;156474.69;5001408;28;20943;-77
2022/08/10 02:50:20;;;;;;;5.37;5.00;;;;;;;19.91;53.69;156482.53;4994342;28;20507;-77
2022/08/10 02:52:55;;;;;;;5.73;4.23;;;;;;;19.87;54.08;156470.81;5013163;28;20447;-77
2022/08/10 02:55:27;;;;;;;5.00;4.60;;;;;;;19.86;53.97;156468.19;5014221;28;20461;-77
2022/08/10 02:57:56;;;;;;;5.20;4.80;;;;;;;19.84;53.98;156463.00;4973877;28;20480;-77
2022/08/10 03:00:24;;;;;;;4.83;4.53;;;;;;;19.83;53.95;156460.41;4990372;28;20469;-77
2022/08/10 03:02:52;;;;;;;5.03;4.67;;;;;;;19.87;53.64;156472.13;5012092;28;20495;-77
2022/08/10 03:05:20;;;;;;;5.30;4.80;;;;;;;19.82;53.93;156459.09;4989030;28;20438;-77
2022/08/10 03:07:49;;;;;;;4.93;4.43;;;;;;;19.75;54.07;156440.81;4974911;28;20449;-77
2022/08/10 03:10:17;;;;;;;5.10;4.60;;;;;;;19.69;54.50;156423.88;5008455;28;20551;-78
2022/08/10 03:12:46;;;;;;;5.40;4.90;;;;;;;19.70;54.12;156426.47;4989370;28;20556;-77
2022/08/10 03:15:14;;;;;;;4.50;4.20;;;;;;;19.70;54.33;156427.78;4974649;28;20501;-78
2022/08/10 03:17:41;;;;;;;4.97;4.57;;;;;;;19.63;54.53;156408.22;4979087;28;20448;-77
2022/08/10 03:20:09;;;;;;;5.90;5.00;;;;;;;19.58;54.59;156396.50;5008156;28;20452;-78
2022/08/10 03:22:37;;;;;;;5.47;5.07;;;;;;;19.55;54.83;156388.69;5011060;28;20555;-77
2022/08/10 03:25:05;;;;;;;5.33;4.93;;;;;;;19.56;54.61;156390.00;4977858;28;20541;-77
2022/08/10 03:27:32;;;;;;;5.03;4.63;;;;;;;19.54;54.73;156386.06;4977711;28;20507;-78
2022/08/10 03:29:59;;;;;;;6.23;4.10;;;;;;;19.48;54.98;156369.13;4979673;28;20456;-77
2022/08/10 03:32:26;;;;;;;4.57;4.27;;;;;;;19.51;54.80;156378.28;4973594;28;20810;-77
2022/08/10 03:34:54;;;;;;;5.07;4.57;;;;;;;19.52;54.76;156380.84;4986530;28;20524;-78
2022/08/10 03:37:20;;;;;;;5.10;4.70;;;;;;;19.50;54.68;156374.34;5010585;28;20826;-77
2022/08/10 03:39:50;;;;;;;5.00;4.60;;;;;;;19.54;54.68;156386.06;5014971;28;20448;-78
2022/08/10 03:42:17;;;;;;;6.20;4.13;;;;;;;19.55;54.54;156387.38;5013452;28;20487;-77
2022/08/10 03:44:45;;;;;;;5.10;4.70;;;;;;;19.51;54.66;156376.97;5014235;28;20534;-86
2022/08/10 03:47:13;;;;;;;4.83;4.53;;;;;;;19.43;54.62;156358.69;5006714;28;20892;-86
2022/08/10 03:49:40;;;;;;;5.10;4.70;;;;;;;19.50;54.56;156374.34;5027500;28;20511;-85
2022/08/10 03:52:07;;;;;;;4.67;4.37;;;;;;;19.38;54.80;156345.66;5030133;28;20439;-86
2022/08/10 03:54:34;;;;;;;4.53;4.23;;;;;;;19.40;54.78;156350.91;5012828;28;20846;-86
2022/08/10 03:57:03;;;;;;;5.40;4.90;;;;;;;19.40;54.61;156350.91;4975639;28;20512;-85
2022/08/10 03:59:30;;;;;;;4.97;4.57;;;;;;;19.34;55.05;156333.88;5019196;28;20792;-85
2022/08/10 04:01:57;;;;;;;5.63;4.70;;;;;;;19.30;55.04;156323.47;5016932;28;20554;-85
2022/08/10 04:04:24;;;;;;;5.10;4.60;;;;;;;19.30;55.04;156323.47;4983219;28;20875;-86
2022/08/10 04:06:52;;;;;;;5.10;4.70;;;;;;;19.28;54.92;156319.53;5028758;28;20448;-86
2022/08/10 04:09:18;;;;;;;5.40;5.00;;;;;;;19.26;54.87;156314.34;5033840;28;20432;-85
2022/08/10 04:11:45;;;;;;;5.40;5.00;;;;;;;19.27;55.01;156316.91;5015817;28;20497;-86
2022/08/10 04:14:13;;;;;;;5.20;4.80;;;;;;;19.30;55.08;156324.75;5014112;28;20500;-85
2022/08/10 04:16:40;;;;;;;6.37;5.77;;;;;;;19.35;54.48;156337.78;5004918;28;21088;-85
2022/08/10 04:19:07;;;;;;;8.83;7.97;;;;;;;19.34;54.38;156335.19;4996371;28;21192;-85
2022/08/10 04:21:38;;;;;;;12.73;10.40;;;;;;;19.36;54.72;156339.09;4996719;28;20500;-85
2022/08/10 04:24:06;;;;;;;20.13;17.20;;;;;;;19.46;54.10;156363.94;4994130;28;20441;-85
2022/08/10 04:26:33;;;;;;;23.57;19.70;;;;;;;19.42;54.12;156354.78;4963199;28;20518;-85
2022/08/10 04:29:00;;;;;;;20.17;17.53;;;;;;;19.33;54.55;156332.56;4993798;28;20442;-85
2022/08/10 04:31:28;;;;;;;19.70;15.83;;;;;;;19.34;54.01;156335.19;4976916;28;20450;-85
2022/08/10 04:33:57;;;;;;;19.53;17.43;;;;;;;19.33;54.37;156332.56;4982487;28;20545;-85
2022/08/10 04:36:24;;;;;;;19.23;16.27;;;;;;;19.33;54.60;156332.56;5027189;28;20471;-85
2022/08/10 04:38:53;;;;;;;17.23;15.40;;;;;;;19.34;54.61;156333.88;4995186;28;20456;-85
2022/08/10 04:41:20;;;;;;;18.47;14.37;;;;;;;19.39;54.58;156348.28;4993507;28;20437;-85
2022/08/10 04:43:47;;;;;;;19.00;13.40;;;;;;;19.38;54.80;156345.66;5000093;28;20461;-85
2022/08/10 04:46:14;;;;;;;13.13;11.50;;;;;;;19.42;54.62;156356.09;5022517;28;20429;-85
2022/08/10 04:48:42;;;;;;;13.73;9.40;;;;;;;19.43;54.39;156358.69;4992935;28;20446;-85
2022/08/10 04:51:10;;;;;;;11.77;8.60;;;;;;;19.40;54.55;156350.91;4993954;28;20536;-85
2022/08/10 04:53:36;;;;;;;8.83;8.00;;;;;;;19.33;55.10;156332.56;4978715;28;20452;-86
2022/08/10 04:56:04;;;;;;;7.87;6.70;;;;;;;19.41;54.71;156353.47;5013641;28;20481;-85
2022/08/10 04:58:30;;;;;;;7.83;7.00;;;;;;;19.41;54.78;156353.47;5032425;28;20440;-86
2022/08/10 05:00:57;;;;;;;7.20;6.50;;;;;;;19.38;55.01;156345.66;5018777;28;20460;-86
2022/08/10 05:03:24;;;;;;;7.10;6.40;;;;;;;19.47;55.07;156366.50;4975610;28;20584;-86
2022/08/10 05:05:52;;;;;;;7.37;6.63;;;;;;;19.57;54.76;156393.88;4975739;28;20801;-86
2022/08/10 05:08:19;;;;;;;6.30;5.70;;;;;;;19.62;55.19;156406.91;4993826;28;20536;-85
2022/08/10 05:10:46;;;;;;;6.57;6.07;;;;;;;19.75;54.86;156439.56;4995341;28;20496;-85
2022/08/10 05:13:12;;;;;;;5.63;5.13;;;;;;;20.04;53.67;156515.19;5031675;28;20459;-86
2022/08/10 05:15:42;;;;;;;5.40;4.90;;;;;;;20.34;52.87;156593.44;5010561;28;20453;-85
2022/08/10 05:18:09;;;;;;;6.07;5.60;;;;;;;20.63;52.28;156669.09;4995989;28;21033;-85
2022/08/10 05:20:36;;;;;;;5.47;4.97;;;;;;;20.84;51.46;156721.28;4991022;28;20548;-85
2022/08/10 05:23:04;;;;;;;6.43;5.77;;;;;;;21.05;50.84;156776.06;4993327;28;20445;-85
2022/08/10 05:25:43;;;;;;;9.27;5.33;;;;;;;21.28;50.24;156834.88;4980422;28;20448;-84
2022/08/10 05:28:10;;;;;;;5.80;5.20;;;;;;;21.40;49.81;156866.19;5000518;28;20844;-83
2022/08/10 05:30:44;;;;;;;5.70;5.20;;;;;;;21.57;50.02;156910.59;4975836;28;20460;-84
2022/08/10 05:33:11;;;;;;;5.90;5.30;;;;;;;21.74;49.09;156956.25;4992482;28;20862;-84
2022/08/10 05:35:38;;;;;;;7.20;5.97;;;;;;;21.80;49.28;156970.63;4994775;28;20483;-83
2022/08/10 05:38:09;;;;;;;7.10;4.87;;;;;;;22.01;47.79;157025.53;4986285;28;20580;-83
2022/08/10 05:40:37;;;;;;;6.43;5.37;;;;;;;22.16;48.16;157064.69;4987397;28;20437;-84
2022/08/10 05:43:04;;;;;;;4.93;4.53;;;;;;;22.10;47.94;157047.72;4994579;28;20460;-83
2022/08/10 05:45:30;;;;;;;5.50;5.00;;;;;;;22.38;47.68;157120.84;5005748;28;20434;-83
2022/08/10 05:47:57;;;;;;;5.43;5.03;;;;;;;22.39;47.34;157123.47;4973702;28;20456;-83
2022/08/10 05:50:40;;;;;;;4.60;4.20;;;;;;;22.41;46.53;157130.00;4993255;28;20485;-84
2022/08/10 05:53:08;;;;;;;5.50;5.00;;;;;;;22.44;46.58;157136.53;4977258;28;20511;-84
2022/08/10 05:55:35;;;;;;;5.50;5.00;;;;;;;22.38;46.41;157122.16;4976494;28;20448;-84
2022/08/10 05:58:02;;;;;;;5.83;5.23;;;;;;;22.58;46.83;157173.13;4976297;28;20481;-83
2022/08/10 06:00:30;;;;;;;5.17;4.67;;;;;;;22.83;46.62;157237.16;4990224;28;20443;-84
2022/08/10 06:03:00;;;;;;;6.43;5.63;;;;;;;23.01;46.35;157285.50;5010894;28;20586;-83
2022/08/10 06:05:29;;;;;;;5.77;5.23;;;;;;;23.13;46.04;157314.28;5010945;28;20551;-84
2022/08/10 06:08:00;;;;;;;7.53;5.70;;;;;;;23.36;45.97;157374.38;4994022;28;20805;-84
2022/08/10 06:10:30;;;;;;;8.13;5.63;;;;;;;23.58;45.18;157431.97;5012393;28;20769;-83
2022/08/10 06:15:43;;;;;;;6.20;5.63;;;;;;;24.00;43.92;157541.78;4997339;28;20448;-83
2022/08/10 06:18:09;;;;;;;5.83;5.00;;;;;;;24.16;42.84;157583.69;4993894;28;20480;-83
2022/08/10 06:20:36;;;;;;;5.70;5.07;;;;;;;24.01;43.49;157544.34;5014796;28;20531;-83
2022/08/10 06:23:04;;;;;;;5.30;4.90;;;;;;;24.15;42.84;157581.03;4975400;28;20461;-84
2022/08/10 06:25:33;;;;;;;5.50;5.00;;;;;;;24.19;42.48;157590.22;4993168;28;20496;-83
2022/08/10 06:28:02;;;;;;;5.37;4.87;;;;;;;24.52;42.95;157675.19;5001566;28;20863;-83
2022/08/10 06:30:29;;;;;;;5.40;4.93;;;;;;;24.87;42.28;157766.84;4996347;28;20468;-83
2022/08/10 06:32:58;;;;;;;4.87;4.53;;;;;;;24.95;41.28;157787.75;4994031;28;20463;-82
2022/08/10 06:35:28;;;;;;;4.60;4.30;;;;;;;25.16;41.32;157842.72;4990457;28;20429;-84
2022/08/10 06:37:56;;;;;;;5.23;4.73;;;;;;;25.18;40.77;157847.94;5001149;28;20478;-83
2022/08/10 06:40:25;;;;;;;4.67;4.27;;;;;;;25.48;40.15;157923.91;4975948;28;20925;-84
2022/08/10 06:42:54;;;;;;;5.13;4.43;;;;;;;25.41;40.80;157908.19;4984670;28;20451;-83
2022/08/10 06:45:27;;;;;;;5.20;4.43;;;;;;;25.63;40.99;157964.47;4997769;28;20479;-84
2022/08/10 06:47:59;;;;;;;5.23;4.77;;;;;;;25.63;40.58;157963.19;5005980;28;20489;-84
2022/08/10 06:50:29;;;;;;;4.90;4.50;;;;;;;25.80;39.46;158009.00;4977337;28;20461;-83
2022/08/10 06:52:57;;;;;;;5.00;4.50;;;;;;;25.65;40.25;157969.75;5010062;28;20555;-83
2022/08/10 06:55:24;;;;;;;7.23;4.70;;;;;;;25.93;39.48;158041.72;4989750;28;20445;-83
2022/08/10 06:57:53;;;;;;;4.57;3.90;;;;;;;25.95;39.35;158048.25;5006157;28;20470;-83
2022/08/10 07:00:19;;;;;;;5.07;3.90;;;;;;;25.76;39.47;157997.22;4993714;28;20474;-77
2022/08/10 07:02:51;;;;;;;4.60;3.90;;;;;;;26.07;39.00;158078.41;4985882;28;20481;-77
2022/08/10 07:05:20;;;;;;;4.60;4.17;;;;;;;26.11;39.03;158087.53;4991255;28;20543;-77
2022/08/10 07:07:48;;;;;;;4.00;3.70;;;;;;;26.43;38.45;158172.72;4994248;28;20843;-83
2022/08/10 07:10:17;;;;;;;4.33;3.70;;;;;;;26.16;38.81;158100.72;4974909;28;20468;-83
2022/08/10 07:12:44;;;;;;;5.60;3.50;;;;;;;26.14;38.61;158096.75;5000724;28;20477;-84
2022/08/10 07:15:13;;;;;;;4.10;3.53;;;;;;;25.81;38.94;158011.63;5005582;28;20527;-85
2022/08/10 07:17:40;;;;;;;4.03;3.67;;;;;;;26.08;39.04;158080.97;4993396;28;20484;-83
2022/08/10 07:20:09;;;;;;;4.07;3.77;;;;;;;26.46;38.28;158180.56;5000181;28;21023;-84
2022/08/10 07:22:37;;;;;;;3.80;3.50;;;;;;;26.23;38.08;158119.03;5002090;28;20952;-83
2022/08/10 07:25:06;;;;;;;4.10;3.70;;;;;;;26.36;38.40;158154.41;4991878;28;20519;-83
2022/08/10 07:27:33;;;;;;;3.97;3.57;;;;;;;26.47;38.10;158181.91;4981389;28;20515;-84
2022/08/10 07:30:00;;;;;;;3.40;3.07;;;;;;;26.70;38.05;158240.81;4983707;28;20457;-84
2022/08/10 07:32:29;;;;;;;3.93;3.13;;;;;;;26.95;37.39;158307.66;4991178;28;20460;-84
2022/08/10 07:34:56;;;;;;;5.17;3.00;;;;;;;27.09;37.99;158344.34;4996895;28;20461;-85
2022/08/10 07:37:23;;;;;;;6.47;3.47;;;;;;;27.48;37.36;158445.28;4998111;28;20488;-83
2022/08/10 07:39:51;;;;;;;4.33;3.00;;;;;;;27.86;36.52;158543.59;4988869;28;20480;-84
2022/08/10 07:42:24;;;;;;;3.60;3.40;;;;;;;27.66;36.37;158491.19;5000594;28;20966;-85
2022/08/10 07:44:51;;;;;;;3.90;3.60;;;;;;;27.35;36.63;158411.16;4997009;28;20484;-85
2022/08/10 07:47:20;;;;;;;3.90;3.47;;;;;;;27.22;37.13;158375.81;5000897;28;20437;-84
2022/08/10 07:49:51;;;;;;;3.67;3.37;;;;;;;27.15;37.06;158360.09;4985455;28;20537;-83
2022/08/10 07:52:18;;;;;;;4.23;3.73;;;;;;;27.39;36.45;158421.69;4992237;28;20453;-84
2022/08/10 07:54:48;;;;;;;4.07;3.20;;;;;;;26.64;37.94;158226.41;4983863;28;20943;-85
2022/08/10 07:57:18;;;;;;;3.63;3.33;;;;;;;26.86;37.43;158282.78;4996609;28;20576;-84
2022/08/10 07:59:49;;;;;;;3.30;3.10;;;;;;;27.19;37.23;158370.56;4974768;28;20893;-84
2022/08/10 08:02:20;;;;;;;3.00;2.80;;;;;;;27.80;36.63;158529.16;4987479;28;20472;-84
2022/08/10 08:04:49;;;;;;;3.60;3.30;;;;;;;27.79;36.41;158526.59;4990641;28;20542;-84
2022/08/10 08:07:17;;;;;;;6.40;3.20;;;;;;;27.34;36.33;158408.56;4985743;28;20484;-85
2022/08/10 08:09:44;;;;;;;3.57;3.27;;;;;;;27.05;36.95;158332.56;4996807;28;20445;-84
2022/08/10 08:12:11;;;;;;;4.03;3.63;;;;;;;26.94;37.22;158305.06;4997016;28;20868;-78
2022/08/10 08:14:38;;;;;;;3.53;3.27;;;;;;;27.16;36.83;158361.41;4995993;28;20535;-78
2022/08/10 08:17:08;;;;;;;3.13;2.93;;;;;;;27.40;36.72;158424.38;4976240;28;20480;-79
2022/08/10 08:19:35;;;;;;;3.70;3.30;;;;;;;27.99;36.63;158577.69;4997057;28;20452;-79
2022/08/10 08:22:03;;;;;;;3.67;3.37;;;;;;;28.04;35.73;158590.84;4984610;28;20480;-79
2022/08/10 08:24:32;;;;;;;3.40;3.20;;;;;;;27.74;36.24;158512.16;4996586;28;20445;-78
2022/08/10 08:26:59;;;;;;;2.97;2.77;;;;;;;28.12;36.51;158611.81;4992384;28;20457;-79
2022/08/10 08:29:26;;;;;;;3.43;2.97;;;;;;;28.22;36.00;158636.75;5006904;28;20573;-79
2022/08/10 08:31:54;;;;;;;3.73;2.80;;;;;;;27.68;34.81;158496.41;4995791;28;20465;-79
2022/08/10 08:34:21;;;;;;;3.43;3.13;;;;;;;27.99;34.83;158576.34;5003931;28;20559;-79
2022/08/10 08:36:49;;;;;;;3.20;3.00;;;;;;;28.34;34.31;158669.53;4992201;28;20461;-79
2022/08/10 08:39:17;;;;;;;2.90;2.70;;;;;;;28.30;33.82;158657.72;4995130;28;20448;-79
2022/08/10 08:41:53;;;;;;;3.50;3.20;;;;;;;28.09;34.10;158602.66;5004432;28;20543;-79
2022/08/10 08:44:25;;;;;;;4.47;3.20;;;;;;;27.68;34.80;158497.75;4993889;28;20542;-79
2022/08/10 08:47:03;;;;;;;4.47;3.50;;;;;;;27.64;34.90;158485.97;5005798;28;20807;-79
2022/08/10 08:49:45;;;;;;;3.70;3.20;;;;;;;27.70;33.78;158502.97;5008225;28;20602;-79
2022/08/10 08:52:18;;;;;;;4.03;3.63;;;;;;;27.51;34.82;158451.88;5000273;28;20555;-78
2022/08/10 08:54:57;;;;;;;3.00;2.80;;;;;;;27.94;34.18;158563.25;5009904;28;20537;-79
2022/08/10 08:57:33;;;;;;;3.33;3.03;;;;;;;27.90;34.42;158552.78;4983798;28;20485;-79
2022/08/10 09:00:04;;;;;;;4.13;2.80;;;;;;;27.77;33.87;158521.31;4998450;28;20791;-78
2022/08/10 09:02:39;;;;;;;4.93;2.97;;;;;;;27.87;33.53;158544.91;4986866;28;20520;-79
2022/08/10 09:05:26;;;;;;;3.10;2.90;;;;;;;28.15;34.21;158618.38;4998902;28;20433;-79
2022/08/10 09:08:11;;;;;;;2.87;2.67;;;;;;;27.96;34.05;158569.81;4980616;28;20454;-79
2022/08/10 09:10:45;;;;;;;3.20;3.00;;;;;;;27.80;33.98;158527.84;4977681;28;20543;-79
2022/08/10 09:13:17;;;;;;;4.47;3.03;;;;;;;27.90;34.56;158552.78;4987484;28;20565;-79
2022/08/10 09:15:51;;;;;;;2.97;2.77;;;;;;;27.84;34.06;158538.38;5003087;28;20473;-77
2022/08/10 09:18:21;;;;;;;3.13;2.90;;;;;;;27.89;33.26;158551.47;5000395;28;21020;-77
2022/08/10 09:20:54;;;;;;;3.57;3.27;;;;;;;27.97;33.13;158571.13;4982963;28;20456;-77
2022/08/10 09:23:26;;;;;;;3.93;3.30;;;;;;;27.51;33.52;158453.16;5011073;28;20567;-77
2022/08/10 09:25:59;;;;;;;3.77;3.47;;;;;;;27.44;34.02;158434.81;4998603;28;20990;-77
2022/08/10 09:28:30;;;;;;;5.13;3.40;;;;;;;27.67;32.52;158493.78;4989245;28;20583;-77
2022/08/10 09:30:59;;;;;;;3.00;2.80;;;;;;;27.82;32.36;158531.81;4992359;28;20456;-77
2022/08/10 09:33:32;;;;;;;3.27;2.97;;;;;;;27.84;31.53;158538.38;5010812;28;20536;-76
2022/08/10 09:36:07;;;;;;;3.10;2.80;;;;;;;27.58;31.31;158470.22;4988321;28;20951;-77
2022/08/10 09:38:40;;;;;;;3.63;3.33;;;;;;;27.48;32.39;158445.28;5007589;28;20461;-75
2022/08/10 09:41:16;;;;;;;3.20;2.73;;;;;;;27.74;32.93;158512.16;4989082;28;20804;-76
2022/08/10 09:43:50;;;;;;;3.47;2.83;;;;;;;27.80;32.52;158527.84;5001796;28;20458;-76
2022/08/10 09:46:25;;;;;;;3.20;2.90;;;;;;;27.91;32.34;158555.38;4978622;28;20548;-76
2022/08/10 09:48:59;;;;;;;3.87;3.40;;;;;;;27.28;32.08;158392.84;4982694;28;20531;-75
2022/08/10 09:51:30;;;;;;;4.03;2.93;;;;;;;27.05;33.15;158333.91;5013842;28;20888;-76
2022/08/10 09:54:00;;;;;;;3.57;3.27;;;;;;;27.10;32.60;158347.00;4989457;28;21283;-76
2022/08/10 09:56:34;;;;;;;3.40;3.10;;;;;;;27.09;32.45;158343.03;4995589;28;20541;-76
2022/08/10 09:59:12;;;;;;;3.27;2.93;;;;;;;27.42;32.00;158428.28;4994158;28;20484;-76
2022/08/10 10:01:41;;;;;;;3.23;2.93;;;;;;;27.30;33.04;158396.78;5010485;28;20575;-76
2022/08/10 10:04:11;;;;;;;2.80;2.60;;;;;;;27.40;32.97;158424.38;4989657;28;20451;-76
2022/08/10 10:06:43;;;;;;;3.20;2.90;;;;;;;27.00;32.51;158319.47;4988172;28;20515;-75
2022/08/10 10:09:17;;;;;;;3.90;3.10;;;;;;;26.59;33.41;158213.31;5011243;28;20548;-77
2022/08/10 10:11:53;;;;;;;4.03;3.23;;;;;;;26.71;33.79;158243.44;5011477;28;20449;-77
2022/08/10 10:14:30;;;;;;;3.37;3.07;;;;;;;27.14;32.51;158356.13;5009742;28;20448;-75
2022/08/10 10:17:03;;;;;;;3.30;3.00;;;;;;;26.82;32.62;158272.31;4978616;28;20457;-75
2022/08/10 10:20:01;;;;;;;3.50;2.77;;;;;;;26.50;33.04;158191.03;4990840;28;20817;-77
2022/08/10 10:22:42;;;;;;;5.00;2.63;;;;;;;26.58;33.25;158212.00;4958450;28;20452;-77
2022/08/10 10:25:15;;;;;;;10.53;3.23;;;;;;;26.74;32.72;158251.31;4992743;28;20892;-75
2022/08/10 10:27:48;;;;;;;4.30;3.00;;;;;;;27.07;32.73;158339.13;4987388;28;21045;-75
2022/08/10 10:30:17;;;;;;;3.30;3.00;;;;;;;26.89;33.34;158290.66;4975862;28;20453;-75
2022/08/10 10:32:56;;;;;;;3.80;3.40;;;;;;;26.71;33.50;158243.44;4992435;28;20507;-77
2022/08/10 10:35:27;;;;;;;4.17;3.30;;;;;;;26.77;33.28;158260.50;5006303;28;20554;-75
2022/08/10 10:37:55;;;;;;;4.00;2.73;;;;;;;26.83;33.20;158276.25;4997191;28;20500;-74
2022/08/10 10:40:24;;;;;;;2.77;2.57;;;;;;;26.99;33.49;158318.16;4990805;28;20464;-75
2022/08/10 10:43:04;;;;;;;3.43;3.13;;;;;;;27.22;33.23;158377.09;5010308;28;20433;-74
2022/08/10 10:45:36;;;;;;;4.23;3.17;;;;;;;26.93;32.53;158301.09;4992010;28;20457;-77
2022/08/10 10:48:11;;;;;;;5.60;3.10;;;;;;;26.66;33.97;158231.69;4993884;28;20557;-76
2022/08/10 10:50:44;;;;;;;5.37;2.60;;;;;;;26.64;33.42;158226.41;4976108;28;20523;-76
2022/08/10 10:53:14;;;;;;;6.73;2.83;;;;;;;26.90;33.76;158293.28;4983278;28;20959;-76
2022/08/10 10:55:47;;;;;;;3.20;2.90;;;;;;;26.87;32.95;158285.44;4993868;28;20487;-76
2022/08/10 10:58:22;;;;;;;3.80;2.90;;;;;;;26.93;32.68;158301.09;4992682;28;20834;-75
2022/08/10 11:00:56;;;;;;;3.47;3.00;;;;;;;27.01;32.59;158322.06;4988616;28;20552;-75
2022/08/10 11:03:50;;;;;;;2.87;2.60;;;;;;;26.91;31.74;158297.19;4992573;28;20866;-74
2022/08/10 11:06:22;;;;;;;3.57;2.63;;;;;;;26.99;31.94;158316.84;4968740;28;20457;-77
2022/08/10 11:08:51;;;;;;;4.97;2.83;;;;;;;27.09;30.89;158344.34;4981223;28;20557;-77
2022/08/10 11:11:22;;;;;;;3.30;2.40;;;;;;;27.01;31.00;158322.06;4972080;28;20949;-77
2022/08/10 11:14:01;;;;;;;3.33;3.13;;;;;;;26.59;31.87;158214.63;5001306;28;20491;-77
2022/08/10 11:16:36;;;;;;;2.70;2.50;;;;;;;26.54;31.68;158201.53;5009961;28;20590;-77
2022/08/10 11:19:17;;;;;;;4.60;2.67;;;;;;;26.57;32.09;158209.41;4991631;28;20468;-77
2022/08/10 11:21:52;;;;;;;2.70;2.50;;;;;;;26.80;32.05;158267.06;4996962;28;20711;-77
2022/08/10 11:24:23;;;;;;;5.90;2.57;;;;;;;26.96;32.03;158308.97;5006726;28;20530;-76
2022/08/10 11:26:54;;;;;;;4.10;3.10;;;;;;;26.58;31.87;158212.00;4976694;28;20433;-76
2022/08/10 11:29:29;;;;;;;3.00;2.80;;;;;;;26.89;32.05;158290.66;4974593;28;20845;-76
2022/08/10 11:32:02;;;;;;;5.27;2.90;;;;;;;27.00;31.77;158320.81;4982852;28;20540;-76
2022/08/10 11:34:34;;;;;;;3.90;2.90;;;;;;;26.90;31.39;158293.28;4999042;28;20519;-76
2022/08/10 11:37:09;;;;;;;3.87;3.57;;;;;;;26.73;33.13;158250.00;4977520;28;20441;-76
2022/08/10 11:39:40;;;;;;;2.70;2.50;;;;;;;26.96;32.40;158310.28;4974509;28;20472;-77
2022/08/10 11:42:12;;;;;;;3.13;2.80;;;;;;;26.99;31.67;158316.84;4973230;28;20549;-77
2022/08/10 11:44:47;;;;;;;3.30;3.00;;;;;;;26.78;32.41;158263.13;5001803;28;20450;-77